createdAt,value
2019-06-27T00:03:35.391Z,9.10
2019-06-27T00:06:17.703Z,4.47
2019-06-27T00:12:02.454Z,7.33
2019-06-27T00:14:51.352Z,5.27
2019-06-27T00:17:40.280Z,7.63
2019-06-27T00:21:02.501Z,6.47
2019-06-27T00:23:39.183Z,6.60
2019-06-27T00:26:28.039Z,6.47
2019-06-27T00:29:16.882Z,5.07
2019-06-27T00:32:06.005Z,6.23
2019-06-27T00:34:55.332Z,7.30
2019-06-27T00:37:44.165Z,8.10
2019-06-27T00:40:33.013Z,6.43
2019-06-27T00:43:21.922Z,6.83
2019-06-27T00:46:10.867Z,5.20
2019-06-27T00:48:59.734Z,4.80
2019-06-27T00:51:29.420Z,9.17
2019-06-27T00:54:18.259Z,5.70
2019-06-27T00:57:13.931Z,8.20
2019-06-27T00:59:38.386Z,6.57
2019-06-27T01:02:27.237Z,5.40
2019-06-27T01:05:16.142Z,9.10
2019-06-27T01:08:05.049Z,6.73
2019-06-27T01:10:53.959Z,5.87
2019-06-27T01:13:42.809Z,5.70
2019-06-27T01:16:31.641Z,5.37
2019-06-27T01:19:20.489Z,6.87
2019-06-27T01:22:09.322Z,4.40
2019-06-27T01:24:58.182Z,5.63
2019-06-27T01:27:47.096Z,6.00
2019-06-27T01:30:36.112Z,5.93
2019-06-27T01:33:24.954Z,5.57
2019-06-27T01:36:13.814Z,5.17
2019-06-27T01:38:43.303Z,6.60
2019-06-27T01:41:32.162Z,5.63
2019-06-27T01:44:40.140Z,8.47
2019-06-27T01:47:28.956Z,4.20
2019-06-27T01:50:17.884Z,8.53
2019-06-27T01:53:06.749Z,9.57
2019-06-27T01:55:55.591Z,12.80
2019-06-27T01:58:37.909Z,8.50
2019-06-27T02:01:26.833Z,5.00
2019-06-27T02:04:15.724Z,6.93
2019-06-27T02:07:25.473Z,5.90
2019-06-27T02:10:15.183Z,5.70
2019-06-27T02:13:04.063Z,5.07
2019-06-27T02:15:52.933Z,7.93
2019-06-27T02:18:41.516Z,6.90
2019-06-27T02:21:11.098Z,9.10
2019-06-27T02:23:59.962Z,6.63
2019-06-27T02:26:48.834Z,6.27
2019-06-27T02:29:37.683Z,5.63
2019-06-27T02:32:26.511Z,5.77
2019-06-27T02:35:15.993Z,8.53
2019-06-27T02:41:13.865Z,7.00
2019-06-27T02:44:02.761Z,6.90
2019-06-27T02:46:51.622Z,8.97
2019-06-27T02:49:33.435Z,5.83
2019-06-27T02:52:22.268Z,4.73
2019-06-27T02:55:11.112Z,6.83
2019-06-27T02:58:00.118Z,5.20
2019-06-27T03:00:48.941Z,6.23
2019-06-27T03:03:37.801Z,10.57
2019-06-27T03:06:19.953Z,4.80
2019-06-27T03:09:08.878Z,6.33
2019-06-27T03:12:00.326Z,10.87
2019-06-27T03:14:48.297Z,4.80
2019-06-27T03:17:37.124Z,6.73
2019-06-27T03:20:25.980Z,7.23
2019-06-27T03:23:14.814Z,8.10
2019-06-27T03:26:03.683Z,8.53
2019-06-27T03:28:51.041Z,8.50
2019-06-27T03:31:23.784Z,5.50
2019-06-27T03:34:12.674Z,8.90
2019-06-27T03:37:01.599Z,11.40
2019-06-27T03:39:50.432Z,4.67
2019-06-27T03:42:39.375Z,11.70
2019-06-27T03:45:28.205Z,6.43
2019-06-27T03:47:57.727Z,6.37
2019-06-27T03:50:46.562Z,6.93
2019-06-27T03:53:16.085Z,8.13
2019-06-27T03:56:04.910Z,11.20
2019-06-27T03:58:46.717Z,13.53
2019-06-27T04:01:35.586Z,11.43
2019-06-27T04:04:05.151Z,9.17
2019-06-27T04:06:34.659Z,9.90
2019-06-27T04:09:23.536Z,10.57
2019-06-27T04:12:12.367Z,9.70
2019-06-27T04:14:41.954Z,8.70
2019-06-27T04:17:30.832Z,11.93
2019-06-27T04:20:00.470Z,9.13
2019-06-27T04:22:49.516Z,10.30
2019-06-27T04:25:38.313Z,12.23
2019-06-27T04:28:27.170Z,13.03
2019-06-27T04:31:15.995Z,13.30
2019-06-27T04:34:04.932Z,11.40
2019-06-27T04:36:53.862Z,13.00
2019-06-27T04:39:42.712Z,12.20
2019-06-27T04:42:31.555Z,13.30
2019-06-27T04:45:20.403Z,11.93
2019-06-27T04:47:49.916Z,14.60
2019-06-27T04:50:38.860Z,12.57
2019-06-27T04:59:52.537Z,12.80
2019-06-27T05:02:30.682Z,15.90
2019-06-27T05:04:59.627Z,14.47
2019-06-27T05:07:29.212Z,18.63
2019-06-27T05:09:58.728Z,15.00
2019-06-27T05:12:47.598Z,17.20
2019-06-27T05:15:17.197Z,16.83
2019-06-27T05:18:06.129Z,20.50
2019-06-27T05:20:35.714Z,19.23
2019-06-27T05:23:24.579Z,19.10
2019-06-27T05:25:54.093Z,18.50
2019-06-27T05:28:42.935Z,19.00
2019-06-27T05:31:31.801Z,19.43
2019-06-27T05:34:01.302Z,19.80
2019-06-27T05:36:30.822Z,17.60
2019-06-27T05:39:19.702Z,17.80
2019-06-27T05:42:08.581Z,24.33
2019-06-27T05:44:57.435Z,17.33
2019-06-27T05:47:46.316Z,17.10
2019-06-27T05:50:27.719Z,24.37
2019-06-27T05:53:16.565Z,19.63
2019-06-27T05:56:05.404Z,17.03
2019-06-27T05:59:13.592Z,16.87
2019-06-27T06:02:02.461Z,19.47
2019-06-27T06:04:51.303Z,17.70
2019-06-27T06:07:40.195Z,18.57
2019-06-27T06:10:29.135Z,18.03
2019-06-27T06:13:17.970Z,15.37
2019-06-27T06:16:06.811Z,22.97
2019-06-27T06:19:02.736Z,15.77
2019-06-27T06:21:51.588Z,15.60
2019-06-27T06:24:40.448Z,13.97
2019-06-27T06:27:29.288Z,13.97
2019-06-27T06:30:18.314Z,15.10
2019-06-27T06:33:07.215Z,17.63
2019-06-27T06:35:56.078Z,15.20
2019-06-27T06:38:44.939Z,18.03
2019-06-27T06:41:33.775Z,15.30
2019-06-27T06:44:22.620Z,15.40
2019-06-27T06:47:11.452Z,15.57
2019-06-27T06:50:00.714Z,15.80
2019-06-27T06:52:49.550Z,15.90
2019-06-27T06:55:38.426Z,15.83
2019-06-27T06:58:27.284Z,14.03
2019-06-27T07:01:01.394Z,16.50
2019-06-27T07:03:47.422Z,23.27
2019-06-27T07:06:36.266Z,13.73
2019-06-27T07:09:25.111Z,14.47
2019-06-27T07:12:13.951Z,12.97
2019-06-27T07:15:02.937Z,12.70
2019-06-27T07:17:51.781Z,10.87
2019-06-27T07:20:40.639Z,12.90
2019-06-27T07:23:29.473Z,11.17
2019-06-27T07:26:21.923Z,12.60
2019-06-27T07:29:08.876Z,11.30
2019-06-27T07:31:57.989Z,14.17
2019-06-27T07:34:46.845Z,15.07
2019-06-27T07:37:35.747Z,14.10
2019-06-27T07:40:24.591Z,15.13
2019-06-27T07:43:13.458Z,13.23
2019-06-27T07:46:02.305Z,14.37
2019-06-27T07:48:51.144Z,14.40
2019-06-27T07:51:33.344Z,13.90
2019-06-27T07:54:22.160Z,14.77
2019-06-27T07:57:11.019Z,15.93
2019-06-27T07:59:59.829Z,14.43
2019-06-27T08:02:42.028Z,15.47
2019-06-27T08:05:30.872Z,16.20
2019-06-27T08:08:19.693Z,14.63
2019-06-27T08:11:08.685Z,14.50
2019-06-27T08:13:57.548Z,15.17
2019-06-27T08:16:27.124Z,14.63
2019-06-27T08:19:16.053Z,14.90
2019-06-27T08:22:05.117Z,14.83
2019-06-27T08:24:54.022Z,14.50
2019-06-27T08:27:42.884Z,13.40
2019-06-27T08:33:27.450Z,11.33
2019-06-27T08:36:16.286Z,15.20
2019-06-27T08:42:20.421Z,11.63
2019-06-27T08:48:24.520Z,9.70
2019-06-27T08:51:13.362Z,9.57
2019-06-27T08:54:02.208Z,10.57
2019-06-27T08:56:51.057Z,10.90
2019-06-27T08:59:39.945Z,10.13
2019-06-27T09:02:21.759Z,9.20
2019-06-27T09:05:10.744Z,9.70
2019-06-27T09:07:59.566Z,7.73
2019-06-27T09:10:48.445Z,7.43
2019-06-27T09:13:17.983Z,9.47
2019-06-27T09:16:06.885Z,9.20
2019-06-27T09:18:55.759Z,6.17
2019-06-27T09:21:44.603Z,9.10
2019-06-27T09:24:33.492Z,7.17
2019-06-27T09:27:22.336Z,7.70
2019-06-27T09:33:26.633Z,5.97
2019-06-27T09:36:15.478Z,6.03
2019-06-27T09:42:18.800Z,6.23
2019-06-27T09:45:07.761Z,5.40
2019-06-27T09:47:56.704Z,6.07
2019-06-27T09:50:38.510Z,4.93
2019-06-27T09:53:27.394Z,6.17
2019-06-27T09:56:16.295Z,9.30
2019-06-27T09:59:05.125Z,6.80
2019-06-27T10:01:47.119Z,5.07
2019-06-27T10:04:35.950Z,5.57
2019-06-27T10:07:24.839Z,5.97
2019-06-27T10:13:42.077Z,4.57
2019-06-27T10:16:30.972Z,5.77
2019-06-27T10:19:19.818Z,4.33
2019-06-27T10:22:08.667Z,5.80
2019-06-27T10:24:57.626Z,4.60
2019-06-27T10:27:46.576Z,5.07
2019-06-27T10:30:35.408Z,4.77
2019-06-27T10:33:24.265Z,4.10
2019-06-27T10:36:13.122Z,4.93
2019-06-27T10:39:01.956Z,3.90
2019-06-27T10:41:50.807Z,3.80
2019-06-27T10:44:39.664Z,2.90
2019-06-27T10:47:28.574Z,4.83
2019-06-27T10:50:38.274Z,4.00
2019-06-27T10:53:27.135Z,4.47
2019-06-27T10:56:15.985Z,4.33
2019-06-27T10:59:04.838Z,3.33
2019-06-27T11:01:48.702Z,2.83
2019-06-27T11:04:37.521Z,4.60
2019-06-27T11:07:41.370Z,3.47
2019-06-27T11:10:17.004Z,2.60
2019-06-27T11:13:05.867Z,2.80
2019-06-27T11:15:54.772Z,2.60
2019-06-27T11:18:43.643Z,4.60
2019-06-27T11:21:32.486Z,3.97
2019-06-27T11:24:21.310Z,3.40
2019-06-27T11:27:10.189Z,3.23
2019-06-27T11:29:59.036Z,4.33
2019-06-27T11:32:47.876Z,3.57
2019-06-27T11:35:36.690Z,3.70
2019-06-27T11:38:25.531Z,4.27
2019-06-27T11:41:14.373Z,4.53
2019-06-27T11:44:03.472Z,2.80
2019-06-27T11:46:52.312Z,5.77
2019-06-27T11:49:41.143Z,3.40
2019-06-27T11:52:29.994Z,5.90
2019-06-27T11:55:18.960Z,3.50
2019-06-27T11:58:07.763Z,2.57
2019-06-27T12:00:56.584Z,3.80
2019-06-27T12:03:48.682Z,3.40
2019-06-27T12:06:29.307Z,4.97
2019-06-27T12:09:18.318Z,3.10
2019-06-27T12:12:07.197Z,5.27
2019-06-27T12:14:56.068Z,3.23
2019-06-27T12:17:44.897Z,4.43
2019-06-27T12:20:33.751Z,2.20
2019-06-27T12:23:22.578Z,4.03
2019-06-27T12:26:11.546Z,5.20
2019-06-27T12:29:00.378Z,3.40
2019-06-27T12:31:51.613Z,4.20
2019-06-27T12:34:39.815Z,3.50
2019-06-27T12:37:47.988Z,3.67
2019-06-27T12:40:36.919Z,4.27
2019-06-27T12:43:25.762Z,2.43
2019-06-27T12:46:14.614Z,3.20
2019-06-27T12:49:03.538Z,5.83
2019-06-27T12:51:52.373Z,3.33
2019-06-27T12:54:41.279Z,3.13
2019-06-27T12:57:30.179Z,3.40
2019-06-27T13:03:34.866Z,3.20
2019-06-27T13:06:23.731Z,4.23
2019-06-27T13:09:12.600Z,4.47
2019-06-27T13:12:01.522Z,3.00
2019-06-27T13:14:50.359Z,4.73
2019-06-27T13:17:39.264Z,3.87
2019-06-27T13:20:28.298Z,3.80
2019-06-27T13:23:17.183Z,5.20
2019-06-27T13:26:06.338Z,3.10
2019-06-27T13:28:55.162Z,4.10
2019-06-27T13:31:43.995Z,4.87
2019-06-27T13:34:40.259Z,2.50
2019-06-27T13:37:23.401Z,3.27
2019-06-27T13:40:12.546Z,3.43
2019-06-27T13:43:01.396Z,6.50
2019-06-27T13:45:50.239Z,3.40
2019-06-27T13:48:39.203Z,3.97
2019-06-27T13:51:28.035Z,5.13
2019-06-27T13:54:16.956Z,4.23
2019-06-27T13:57:05.882Z,4.13
2019-06-27T13:59:54.797Z,6.07
2019-06-27T14:02:43.672Z,4.00
2019-06-27T14:05:25.029Z,3.33
2019-06-27T14:08:14.132Z,4.43
2019-06-27T14:11:03.029Z,3.43
2019-06-27T14:13:51.991Z,3.63
2019-06-27T14:16:40.905Z,4.33
2019-06-27T14:19:30.386Z,4.70
2019-06-27T14:22:32.936Z,3.60
2019-06-27T14:25:09.922Z,4.40
2019-06-27T14:27:58.788Z,6.07
2019-06-27T14:30:47.689Z,4.43
2019-06-27T14:33:37.685Z,3.03
2019-06-27T14:36:26.552Z,8.53
2019-06-27T14:39:15.794Z,3.03
2019-06-27T14:42:04.719Z,5.60
2019-06-27T14:44:53.557Z,3.40
2019-06-27T14:47:42.536Z,3.37
2019-06-27T14:50:31.388Z,3.93
2019-06-27T14:53:20.246Z,3.17
2019-06-27T14:56:09.107Z,2.43
2019-06-27T14:58:57.958Z,4.20
2019-06-27T15:01:46.778Z,9.37
2019-06-27T15:04:28.383Z,2.60
2019-06-27T15:07:17.277Z,3.40
2019-06-27T15:10:25.543Z,4.10
2019-06-27T15:13:14.413Z,3.40
2019-06-27T15:16:11.943Z,5.10
2019-06-27T15:18:53.836Z,4.00
2019-06-27T15:21:42.726Z,4.07
2019-06-27T15:24:31.596Z,6.57
2019-06-27T15:33:31.311Z,3.67
2019-06-27T15:36:20.137Z,6.03
2019-06-27T15:39:11.872Z,3.63
2019-06-27T15:42:01.684Z,3.53
2019-06-27T15:44:50.504Z,4.07
2019-06-27T15:47:39.338Z,10.53
2019-06-27T15:50:28.264Z,3.20
2019-06-27T15:53:17.168Z,4.20
2019-06-27T15:56:06.000Z,3.40
2019-06-27T15:58:54.885Z,7.90
2019-06-27T16:01:43.732Z,4.93
2019-06-27T16:04:34.373Z,3.57
2019-06-27T16:07:16.667Z,2.83
2019-06-27T16:10:24.950Z,3.27
2019-06-27T16:13:13.850Z,3.90
2019-06-27T16:16:02.679Z,3.90
2019-06-27T16:18:51.554Z,4.90
2019-06-27T16:21:40.470Z,5.63
2019-06-27T16:24:29.309Z,6.53
2019-06-27T16:27:18.206Z,4.70
2019-06-27T16:30:27.938Z,5.77
2019-06-27T16:33:16.772Z,5.93
2019-06-27T16:36:05.772Z,4.80
2019-06-27T16:38:54.673Z,3.97
2019-06-27T16:41:43.574Z,4.27
2019-06-27T16:44:32.490Z,4.90
2019-06-27T16:47:21.366Z,5.27
2019-06-27T16:50:10.561Z,3.10
2019-06-27T16:52:59.400Z,3.50
2019-06-27T16:55:48.389Z,2.90
2019-06-27T16:58:37.224Z,4.07
2019-06-27T17:01:26.121Z,4.33
2019-06-27T17:04:14.959Z,2.60
2019-06-27T17:06:56.506Z,4.77
2019-06-27T17:09:45.344Z,3.90
2019-06-27T17:12:27.467Z,3.80
2019-06-27T17:15:37.170Z,5.00
2019-06-27T17:18:26.199Z,4.73
2019-06-27T17:21:15.132Z,4.30
2019-06-27T17:24:04.085Z,4.90
2019-06-27T17:26:52.921Z,3.63
2019-06-27T17:29:41.826Z,5.87
2019-06-27T17:32:30.714Z,5.00
2019-06-27T17:35:19.517Z,3.23
2019-06-27T17:38:08.404Z,10.07
2019-06-27T17:40:57.302Z,4.47
2019-06-27T17:43:46.173Z,4.30
2019-06-27T17:46:34.999Z,8.00
2019-06-27T17:49:23.857Z,3.07
2019-06-27T17:52:12.699Z,3.10
2019-06-27T17:55:01.544Z,2.43
2019-06-27T17:57:50.373Z,4.20
2019-06-27T18:00:39.311Z,2.53
2019-06-27T18:03:28.171Z,5.60
2019-06-27T18:06:09.916Z,2.97
2019-06-27T18:08:58.765Z,4.70
2019-06-27T18:11:47.618Z,4.40
2019-06-27T18:14:36.444Z,11.40
2019-06-27T18:17:33.399Z,24.40
2019-06-27T18:20:15.845Z,8.10
2019-06-27T18:23:04.707Z,2.90
2019-06-27T18:25:53.553Z,10.03
2019-06-27T18:28:42.486Z,6.97
2019-06-27T18:31:31.330Z,5.60
2019-06-27T18:34:20.177Z,5.33
2019-06-27T18:37:09.036Z,3.93
2019-06-27T18:39:57.886Z,4.13
2019-06-27T18:42:46.722Z,4.30
2019-06-27T18:45:35.577Z,2.57
2019-06-27T18:48:24.425Z,6.17
2019-06-27T18:51:13.281Z,4.30
2019-06-27T18:54:02.193Z,3.67
2019-06-27T18:56:51.034Z,7.53
2019-06-27T18:59:39.900Z,4.23
2019-06-27T19:05:24.988Z,6.23
2019-06-27T19:08:07.362Z,2.77
2019-06-27T19:10:36.911Z,3.80
2019-06-27T19:13:25.746Z,3.50
2019-06-27T19:16:14.643Z,3.50
2019-06-27T19:22:17.943Z,5.10
2019-06-27T19:31:18.338Z,6.27
2019-06-27T19:34:07.288Z,4.40
2019-06-27T19:36:56.169Z,7.60
2019-06-27T19:39:45.005Z,4.40
2019-06-27T19:42:33.866Z,4.83
2019-06-27T19:45:22.825Z,5.33
2019-06-27T19:48:11.675Z,5.60
2019-06-27T19:51:00.562Z,7.07
2019-06-27T19:53:49.447Z,3.40
2019-06-27T19:56:38.667Z,5.00
2019-06-27T19:59:28.839Z,6.83
2019-06-27T20:02:17.683Z,2.87
2019-06-27T20:05:06.712Z,6.70
2019-06-27T20:07:48.970Z,2.67
2019-06-27T20:10:37.968Z,2.87
2019-06-27T20:13:26.803Z,5.60
2019-06-27T20:16:15.694Z,9.73
2019-06-27T20:19:06.017Z,4.83
2019-06-27T20:21:55.296Z,3.40
2019-06-27T20:24:44.202Z,3.23
2019-06-27T20:27:33.145Z,6.20
2019-06-27T20:30:22.089Z,19.13
2019-06-27T20:36:06.048Z,3.50
2019-06-27T20:38:54.844Z,3.20
2019-06-27T20:41:43.713Z,3.53
2019-06-27T20:44:32.534Z,4.13
2019-06-27T20:47:21.394Z,8.43
2019-06-27T20:53:25.153Z,5.30
2019-06-27T20:56:14.024Z,3.13
2019-06-27T20:58:55.877Z,4.50
2019-06-27T21:01:45.438Z,3.53
2019-06-27T21:04:34.238Z,3.90
2019-06-27T21:07:15.874Z,4.00
2019-06-27T21:10:25.589Z,6.23
2019-06-27T21:13:14.612Z,5.67
2019-06-27T21:16:03.475Z,3.03
2019-06-27T21:18:53.090Z,5.87
2019-06-27T21:21:41.910Z,3.07
2019-06-27T21:24:30.866Z,3.80
2019-06-27T21:27:19.921Z,4.23
2019-06-27T21:33:24.378Z,7.93
2019-06-27T21:36:13.293Z,3.53
2019-06-27T21:39:07.546Z,5.63
2019-06-27T21:41:52.650Z,3.37
2019-06-27T21:44:41.481Z,4.00
2019-06-27T21:47:30.456Z,10.70
2019-06-27T21:50:19.548Z,6.27
2019-06-27T21:53:08.665Z,7.13
2019-06-27T21:55:57.521Z,4.67
2019-06-27T21:58:46.434Z,4.33
2019-06-27T22:01:35.350Z,4.20
2019-06-27T22:04:24.271Z,6.67
2019-06-27T22:07:06.739Z,3.93
2019-06-27T22:09:55.591Z,5.30
2019-06-27T22:12:44.418Z,6.50
2019-06-27T22:15:33.446Z,5.27
2019-06-27T22:18:22.309Z,3.03
2019-06-27T22:21:11.147Z,3.70
2019-06-27T22:24:00.001Z,6.47
2019-06-27T22:26:48.847Z,3.83
2019-06-27T22:29:37.771Z,4.77
2019-06-27T22:32:26.628Z,3.00
2019-06-27T22:39:02.983Z,6.07
2019-06-27T22:42:10.892Z,3.03
2019-06-27T22:45:18.777Z,5.13
2019-06-27T22:48:26.621Z,2.90
2019-06-27T22:54:49.053Z,3.67
2019-06-27T22:57:38.024Z,3.17
2019-06-27T23:00:26.977Z,2.60
2019-06-27T23:03:15.784Z,2.90
2019-06-27T23:06:04.707Z,3.80
2019-06-27T23:08:46.674Z,4.10
2019-06-27T23:11:35.613Z,4.77
2019-06-27T23:14:24.456Z,3.70
2019-06-27T23:17:13.417Z,2.67
2019-06-27T23:20:02.282Z,4.37
2019-06-27T23:22:51.117Z,2.90
2019-06-27T23:25:39.976Z,2.47
2019-06-27T23:28:28.812Z,2.20
2019-06-27T23:31:17.663Z,4.30
2019-06-27T23:34:06.498Z,2.83
2019-06-27T23:36:55.329Z,7.20
2019-06-27T23:39:44.224Z,5.03
2019-06-27T23:42:33.124Z,3.87
2019-06-27T23:45:21.964Z,3.40
2019-06-27T23:48:10.822Z,4.97
2019-06-27T23:50:59.674Z,2.50
2019-06-27T23:53:48.590Z,3.27
2019-06-27T23:56:37.437Z,2.97
2019-06-27T23:59:26.264Z,5.10
